createdAt,value
2022-11-23T00:00:14.342Z,0.00
2022-11-23T00:01:15.227Z,0.00
2022-11-23T00:02:16.214Z,0.00
2022-11-23T00:03:16.686Z,0.00
2022-11-23T00:04:17.570Z,0.00
2022-11-23T00:05:18.456Z,0.00
2022-11-23T00:06:19.335Z,0.00
2022-11-23T00:07:20.410Z,0.00
2022-11-23T00:08:20.760Z,0.00
2022-11-23T00:09:21.645Z,0.00
2022-11-23T00:10:22.530Z,0.00
2022-11-23T00:11:23.414Z,0.00
2022-11-23T00:12:24.294Z,0.00
2022-11-23T00:13:25.177Z,0.00
2022-11-23T00:14:26.058Z,0.00
2022-11-23T00:15:26.943Z,0.00
2022-11-23T00:16:27.828Z,0.00
2022-11-23T00:17:28.708Z,0.00
2022-11-23T00:18:29.606Z,0.00
2022-11-23T00:19:30.916Z,0.00
2022-11-23T00:20:31.403Z,0.00
2022-11-23T00:21:32.281Z,0.00
2022-11-23T00:22:33.176Z,0.00
2022-11-23T00:23:34.046Z,0.00
2022-11-23T00:24:34.981Z,0.00
2022-11-23T00:25:35.840Z,0.00
2022-11-23T00:26:36.723Z,0.00
2022-11-23T00:27:37.606Z,0.00
2022-11-23T00:28:38.501Z,0.00
2022-11-23T00:29:39.381Z,0.00
2022-11-23T00:30:40.266Z,0.00
2022-11-23T00:31:41.151Z,0.00
2022-11-23T00:32:42.044Z,0.00
2022-11-23T00:33:42.936Z,0.00
2022-11-23T00:34:43.819Z,0.00
2022-11-23T00:35:44.701Z,0.00
2022-11-23T00:36:45.584Z,0.00
2022-11-23T00:37:46.492Z,0.00
2022-11-23T00:38:47.363Z,0.00
2022-11-23T00:39:48.244Z,0.00
2022-11-23T00:40:49.126Z,0.00
2022-11-23T00:41:50.010Z,0.00
2022-11-23T00:42:50.882Z,0.00
2022-11-23T00:43:51.777Z,0.00
2022-11-23T00:44:52.661Z,0.00
2022-11-23T00:45:53.540Z,0.00
2022-11-23T00:46:54.427Z,0.00
2022-11-23T00:47:55.326Z,0.00
2022-11-23T00:48:56.230Z,0.00
2022-11-23T00:49:57.129Z,0.00
2022-11-23T00:50:58.032Z,0.00
2022-11-23T00:51:58.939Z,0.00
2022-11-23T00:52:59.861Z,0.00
2022-11-23T00:54:00.756Z,0.00
2022-11-23T00:55:01.643Z,0.00
2022-11-23T00:56:02.523Z,0.00
2022-11-23T00:57:03.418Z,0.00
2022-11-23T00:58:04.314Z,0.00
2022-11-23T00:59:05.183Z,0.00
2022-11-23T01:00:06.071Z,0.00
2022-11-23T01:01:07.086Z,0.00
2022-11-23T01:02:07.457Z,0.00
2022-11-23T01:03:08.339Z,0.00
2022-11-23T01:04:09.238Z,0.00
2022-11-23T01:05:10.117Z,0.00
2022-11-23T01:06:10.989Z,0.00
2022-11-23T01:07:11.913Z,0.00
2022-11-23T01:08:12.776Z,0.00
2022-11-23T01:09:13.649Z,0.00
2022-11-23T01:10:14.534Z,0.00
2022-11-23T01:11:15.418Z,0.00
2022-11-23T01:12:16.299Z,0.00
2022-11-23T01:13:17.191Z,0.00
2022-11-23T01:14:18.107Z,0.00
2022-11-23T01:15:18.996Z,0.00
2022-11-23T01:16:24.276Z,0.00
2022-11-23T01:17:20.390Z,0.00
2022-11-23T01:18:21.274Z,0.00
2022-11-23T01:19:22.168Z,0.00
2022-11-23T01:20:23.055Z,0.00
2022-11-23T01:21:23.936Z,0.00
2022-11-23T01:22:24.824Z,0.00
2022-11-23T01:23:25.725Z,0.00
2022-11-23T01:24:26.600Z,0.00
2022-11-23T01:25:27.480Z,0.00
2022-11-23T01:26:28.365Z,0.00
2022-11-23T01:27:29.249Z,0.00
2022-11-23T01:28:30.136Z,0.00
2022-11-23T01:29:31.237Z,0.00
2022-11-23T01:30:31.711Z,0.00
2022-11-23T01:31:32.591Z,0.00
2022-11-23T01:32:33.467Z,0.00
2022-11-23T01:33:34.415Z,0.00
2022-11-23T01:34:35.273Z,0.00
2022-11-23T01:35:36.147Z,0.00
2022-11-23T01:36:37.020Z,0.00
2022-11-23T01:37:37.996Z,0.00
2022-11-23T01:38:38.845Z,0.00
2022-11-23T01:39:39.708Z,0.00
2022-11-23T01:40:40.591Z,0.00
2022-11-23T01:41:41.466Z,0.00
2022-11-23T01:42:42.351Z,0.00
2022-11-23T01:43:43.261Z,0.00
2022-11-23T01:44:44.135Z,0.00
2022-11-23T01:45:45.011Z,0.00
2022-11-23T01:46:45.885Z,0.00
2022-11-23T01:47:46.788Z,0.00
2022-11-23T01:48:47.654Z,0.00
2022-11-23T01:49:48.545Z,0.00
2022-11-23T01:50:49.430Z,0.00
2022-11-23T01:51:50.312Z,0.00
2022-11-23T01:52:51.187Z,0.00
2022-11-23T01:53:52.106Z,0.00
2022-11-23T01:54:52.964Z,0.00
2022-11-23T01:55:53.849Z,0.00
2022-11-23T01:56:54.733Z,0.00
2022-11-23T01:57:55.617Z,0.00
2022-11-23T01:58:56.491Z,0.00
2022-11-23T01:59:57.399Z,0.00
2022-11-23T02:00:58.370Z,0.00
2022-11-23T02:01:58.758Z,0.00
2022-11-23T02:02:59.632Z,0.00
2022-11-23T02:04:00.517Z,0.00
2022-11-23T02:05:01.411Z,0.00
2022-11-23T02:06:02.305Z,0.00
2022-11-23T02:07:03.177Z,0.00
2022-11-23T02:08:04.085Z,0.00
2022-11-23T02:09:04.965Z,0.00
2022-11-23T02:10:05.838Z,0.00
2022-11-23T02:11:06.710Z,0.00
2022-11-23T02:12:07.604Z,0.00
2022-11-23T02:13:08.476Z,0.00
2022-11-23T02:14:09.360Z,0.00
2022-11-23T02:15:10.254Z,0.00
2022-11-23T02:16:11.137Z,0.00
2022-11-23T02:17:12.012Z,0.00
2022-11-23T02:18:12.910Z,0.00
2022-11-23T02:19:13.779Z,0.00
2022-11-23T02:20:14.675Z,0.00
2022-11-23T02:21:15.562Z,0.00
2022-11-23T02:22:16.461Z,0.00
2022-11-23T02:23:17.339Z,0.00
2022-11-23T02:24:18.264Z,0.00
2022-11-23T02:25:19.141Z,0.00
2022-11-23T02:26:20.046Z,0.00
2022-11-23T02:27:20.939Z,0.00
2022-11-23T02:28:21.816Z,0.00
2022-11-23T02:29:22.697Z,0.00
2022-11-23T02:30:23.628Z,0.00
2022-11-23T02:31:24.491Z,0.00
2022-11-23T02:32:25.378Z,0.00
2022-11-23T02:33:26.254Z,0.00
2022-11-23T02:34:27.138Z,0.00
2022-11-23T02:35:28.023Z,0.00
2022-11-23T02:36:28.912Z,0.00
2022-11-23T02:37:29.789Z,0.00
2022-11-23T02:38:30.676Z,0.00
2022-11-23T02:39:31.764Z,0.00
2022-11-23T02:40:31.897Z,0.00
2022-11-23T02:41:32.782Z,0.00
2022-11-23T02:42:33.673Z,0.00
2022-11-23T02:43:34.549Z,0.00
2022-11-23T02:44:35.431Z,0.00
2022-11-23T02:45:36.325Z,0.00
2022-11-23T02:46:37.207Z,0.00
2022-11-23T02:47:38.082Z,0.00
2022-11-23T02:48:38.982Z,0.00
2022-11-23T02:49:39.849Z,0.00
2022-11-23T02:50:40.742Z,0.00
2022-11-23T02:51:41.616Z,0.00
2022-11-23T02:52:42.504Z,0.00
2022-11-23T02:53:43.374Z,0.00
2022-11-23T02:54:44.288Z,0.00
2022-11-23T02:55:45.154Z,0.00
2022-11-23T02:56:46.038Z,0.00
2022-11-23T02:57:46.914Z,0.00
2022-11-23T02:58:47.795Z,0.00
2022-11-23T02:59:48.669Z,0.00
2022-11-23T03:00:49.599Z,0.00
2022-11-23T03:01:50.451Z,0.00
2022-11-23T03:02:51.335Z,0.00
2022-11-23T03:03:52.220Z,0.00
2022-11-23T03:04:53.103Z,0.00
2022-11-23T03:05:53.997Z,0.00
2022-11-23T03:06:54.896Z,0.00
2022-11-23T03:07:55.766Z,0.00
2022-11-23T03:08:56.650Z,0.00
2022-11-23T03:09:57.555Z,0.00
2022-11-23T03:10:58.426Z,0.00
2022-11-23T03:11:59.316Z,0.00
2022-11-23T03:13:00.211Z,0.00
2022-11-23T03:14:01.097Z,0.00
2022-11-23T03:15:01.999Z,0.00
2022-11-23T03:16:02.901Z,0.00
2022-11-23T03:17:03.804Z,0.00
2022-11-23T03:18:04.687Z,0.00
2022-11-23T03:19:05.600Z,0.00
2022-11-23T03:20:06.483Z,0.00
2022-11-23T03:21:07.384Z,0.00
2022-11-23T03:22:08.258Z,0.00
2022-11-23T03:23:09.143Z,0.00
2022-11-23T03:24:10.049Z,0.00
2022-11-23T03:25:10.968Z,0.00
2022-11-23T03:26:13.331Z,0.00
2022-11-23T03:27:12.804Z,0.00
2022-11-23T03:28:13.704Z,0.00
2022-11-23T03:29:14.600Z,0.00
2022-11-23T03:30:15.505Z,0.00
2022-11-23T03:31:16.425Z,0.00
2022-11-23T03:32:17.305Z,0.00
2022-11-23T03:33:18.177Z,0.00
2022-11-23T03:34:19.064Z,0.00
2022-11-23T03:35:19.944Z,0.00
2022-11-23T03:36:20.833Z,0.00
2022-11-23T03:37:21.724Z,0.00
2022-11-23T03:38:22.594Z,0.00
2022-11-23T03:39:23.478Z,0.00
2022-11-23T03:40:24.379Z,0.00
2022-11-23T03:41:25.255Z,0.00
2022-11-23T03:42:26.141Z,0.00
2022-11-23T03:43:27.032Z,0.00
2022-11-23T03:44:27.908Z,0.00
2022-11-23T03:45:28.790Z,0.00
2022-11-23T03:46:29.676Z,0.00
2022-11-23T03:47:30.559Z,0.00
2022-11-23T03:48:31.435Z,0.00
2022-11-23T03:49:32.718Z,0.00
2022-11-23T03:50:33.100Z,0.00
2022-11-23T03:51:33.993Z,0.00
2022-11-23T03:52:34.867Z,0.00
2022-11-23T03:53:35.748Z,0.00
2022-11-23T03:54:36.623Z,0.00
2022-11-23T03:55:37.539Z,0.00
2022-11-23T03:56:38.403Z,0.00
2022-11-23T03:57:39.285Z,0.00
2022-11-23T03:58:40.180Z,0.00
2022-11-23T03:59:41.050Z,0.00
2022-11-23T04:00:41.975Z,0.00
2022-11-23T04:01:42.837Z,0.00
2022-11-23T04:02:43.727Z,0.00
2022-11-23T04:03:44.622Z,0.00
2022-11-23T04:04:45.524Z,0.00
2022-11-23T04:05:46.428Z,0.00
2022-11-23T04:06:47.343Z,0.00
2022-11-23T04:07:48.294Z,0.00
2022-11-23T04:08:49.154Z,0.00
2022-11-23T04:09:50.037Z,0.00
2022-11-23T04:10:50.959Z,0.00
2022-11-23T04:11:51.848Z,0.00
2022-11-23T04:12:52.723Z,0.00
2022-11-23T04:13:53.609Z,0.00
2022-11-23T04:14:54.498Z,0.00
2022-11-23T04:15:55.377Z,0.00
2022-11-23T04:16:56.271Z,0.00
2022-11-23T04:17:57.154Z,0.00
2022-11-23T04:18:58.030Z,0.00
2022-11-23T04:19:58.910Z,0.00
2022-11-23T04:20:59.808Z,0.00
2022-11-23T04:22:00.686Z,0.00
2022-11-23T04:23:01.562Z,0.00
2022-11-23T04:24:02.445Z,0.00
2022-11-23T04:25:03.328Z,0.00
2022-11-23T04:26:05.374Z,0.00
2022-11-23T04:27:05.247Z,0.00
2022-11-23T04:28:06.088Z,0.00
2022-11-23T04:29:06.974Z,0.00
2022-11-23T04:30:07.860Z,0.00
2022-11-23T04:31:08.741Z,0.00
2022-11-23T04:32:09.632Z,0.00
2022-11-23T04:33:10.544Z,0.00
2022-11-23T04:34:11.402Z,0.00
2022-11-23T04:35:12.279Z,0.00
2022-11-23T04:36:13.162Z,0.00
2022-11-23T04:37:14.053Z,0.00
2022-11-23T04:38:14.936Z,0.00
2022-11-23T04:39:15.852Z,0.00
2022-11-23T04:40:16.716Z,0.00
2022-11-23T04:41:17.732Z,0.00
2022-11-23T04:42:18.541Z,0.00
2022-11-23T04:43:19.428Z,0.00
2022-11-23T04:44:20.309Z,0.00
2022-11-23T04:45:21.232Z,0.00
2022-11-23T04:46:22.084Z,0.00
2022-11-23T04:47:22.976Z,0.00
2022-11-23T04:48:23.862Z,0.00
2022-11-23T04:49:24.744Z,0.00
2022-11-23T04:50:25.626Z,0.00
2022-11-23T04:51:26.549Z,0.00
2022-11-23T04:52:27.420Z,0.00
2022-11-23T04:53:28.305Z,0.00
2022-11-23T04:54:29.194Z,0.00
2022-11-23T04:55:30.072Z,0.00
2022-11-23T04:56:30.999Z,0.00
2022-11-23T04:57:31.890Z,0.00
2022-11-23T04:58:34.566Z,0.00
2022-11-23T04:59:33.959Z,0.00
2022-11-23T05:00:34.464Z,0.00
2022-11-23T05:01:35.443Z,0.00
2022-11-23T05:02:36.269Z,0.00
2022-11-23T05:03:37.169Z,0.00
2022-11-23T05:04:38.043Z,0.00
2022-11-23T05:05:38.951Z,0.00
2022-11-23T05:06:39.855Z,0.00
2022-11-23T05:07:40.809Z,0.00
2022-11-23T05:08:41.642Z,0.00
2022-11-23T05:09:42.569Z,0.00
2022-11-23T05:10:43.459Z,0.00
2022-11-23T05:11:44.345Z,0.00
2022-11-23T05:12:45.210Z,0.00
2022-11-23T05:13:46.090Z,0.00
2022-11-23T05:14:46.975Z,0.00
2022-11-23T05:15:47.895Z,0.00
2022-11-23T05:16:48.763Z,0.00
2022-11-23T05:17:49.647Z,0.00
2022-11-23T05:18:50.531Z,0.00
2022-11-23T05:19:51.416Z,0.00
2022-11-23T05:20:52.303Z,0.00
2022-11-23T05:21:53.223Z,0.00
2022-11-23T05:22:54.077Z,0.00
2022-11-23T05:23:54.965Z,0.00
2022-11-23T05:24:55.845Z,0.00
2022-11-23T05:25:56.729Z,0.00
2022-11-23T05:26:57.662Z,0.00
2022-11-23T05:28:03.640Z,0.00
2022-11-23T05:29:00.293Z,0.00
2022-11-23T05:30:00.177Z,0.00
2022-11-23T05:31:01.063Z,0.00
2022-11-23T05:32:01.953Z,0.00
2022-11-23T05:33:02.830Z,0.00
2022-11-23T05:34:03.742Z,0.00
2022-11-23T05:35:04.602Z,0.00
2022-11-23T05:36:05.483Z,0.00
2022-11-23T05:37:06.379Z,0.00
2022-11-23T05:38:07.260Z,0.00
2022-11-23T05:39:08.140Z,0.00
2022-11-23T05:40:09.079Z,0.00
2022-11-23T05:41:09.927Z,0.00
2022-11-23T05:42:10.839Z,0.00
2022-11-23T05:43:11.704Z,0.00
2022-11-23T05:44:12.589Z,0.00
2022-11-23T05:45:13.488Z,0.00
2022-11-23T05:46:14.398Z,0.00
2022-11-23T05:47:15.293Z,0.00
2022-11-23T05:48:16.184Z,0.00
2022-11-23T05:49:17.086Z,0.00
2022-11-23T05:50:17.988Z,0.00
2022-11-23T05:51:18.892Z,0.00
2022-11-23T05:52:19.766Z,0.00
2022-11-23T05:53:20.667Z,0.00
2022-11-23T05:54:21.522Z,0.00
2022-11-23T05:55:22.409Z,0.00
2022-11-23T05:56:23.291Z,0.00
2022-11-23T05:57:24.217Z,0.00
2022-11-23T05:58:25.075Z,0.00
2022-11-23T05:59:25.951Z,0.00
2022-11-23T06:00:26.832Z,0.00
2022-11-23T06:01:27.716Z,0.00
2022-11-23T06:02:28.613Z,0.00
2022-11-23T06:03:29.516Z,0.00
2022-11-23T06:04:30.378Z,0.00
2022-11-23T06:05:31.261Z,0.00
2022-11-23T06:06:32.144Z,0.00
2022-11-23T06:07:33.068Z,0.00
2022-11-23T06:08:33.857Z,1.00
2022-11-23T06:09:34.888Z,0.00
2022-11-23T06:10:35.345Z,1.00
2022-11-23T06:11:36.166Z,1.00
2022-11-23T06:12:37.035Z,1.00
2022-11-23T06:13:37.889Z,0.00
2022-11-23T06:14:38.769Z,0.00
2022-11-23T06:15:39.612Z,2.00
2022-11-23T06:16:40.442Z,1.00
2022-11-23T06:17:41.275Z,1.00
2022-11-23T06:18:42.106Z,2.00
2022-11-23T06:19:42.935Z,2.00
2022-11-23T06:20:43.763Z,2.00
2022-11-23T06:21:50.124Z,3.00
2022-11-23T06:22:46.309Z,1.00
2022-11-23T06:23:46.140Z,3.00
2022-11-23T06:24:46.970Z,4.00
2022-11-23T06:25:47.790Z,4.00
2022-11-23T06:26:48.618Z,4.00
2022-11-23T06:27:49.492Z,6.00
2022-11-23T06:28:50.291Z,8.00
2022-11-23T06:29:51.113Z,8.00
2022-11-23T06:30:51.958Z,9.00
2022-11-23T06:31:52.780Z,9.00
2022-11-23T06:32:53.618Z,10.00
2022-11-23T06:33:54.451Z,10.00
2022-11-23T06:35:00.578Z,8.00
2022-11-23T06:35:56.994Z,12.00
2022-11-23T06:36:56.822Z,14.00
2022-11-23T06:37:57.668Z,16.00
2022-11-23T06:38:58.508Z,17.00
2022-11-23T06:39:59.328Z,15.00
2022-11-23T06:41:00.161Z,18.00
2022-11-23T06:42:16.763Z,20.00
2022-11-23T06:43:02.730Z,23.00
2022-11-23T06:44:02.532Z,23.00
2022-11-23T06:45:03.379Z,22.00
2022-11-23T06:46:04.191Z,25.00
2022-11-23T06:47:05.030Z,25.00
2022-11-23T06:48:05.860Z,26.00
2022-11-23T06:49:06.686Z,26.00
2022-11-23T06:50:07.509Z,26.00
2022-11-23T06:51:08.336Z,29.00
2022-11-23T06:52:09.156Z,28.00
2022-11-23T06:53:09.995Z,31.00
2022-11-23T06:54:10.913Z,33.00
2022-11-23T06:55:11.746Z,34.00
2022-11-23T06:56:12.575Z,31.00
2022-11-23T06:57:13.406Z,34.00
2022-11-23T06:58:14.255Z,34.00
2022-11-23T06:59:15.065Z,37.00
2022-11-23T07:00:15.885Z,39.00
2022-11-23T07:01:16.766Z,40.00
2022-11-23T07:02:17.547Z,41.00
2022-11-23T07:03:18.432Z,41.00
2022-11-23T07:04:19.214Z,44.00
2022-11-23T07:05:20.041Z,44.00
2022-11-23T07:06:20.862Z,45.00
2022-11-23T07:07:21.788Z,46.00
2022-11-23T07:08:22.602Z,47.00
2022-11-23T07:09:23.453Z,48.00
2022-11-23T07:10:24.250Z,47.00
2022-11-23T07:11:25.078Z,49.00
2022-11-23T07:12:25.910Z,50.00
2022-11-23T07:13:26.767Z,50.00
2022-11-23T07:14:27.574Z,50.00
2022-11-23T07:15:28.399Z,54.00
2022-11-23T07:16:29.224Z,54.00
2022-11-23T07:17:30.050Z,58.00
2022-11-23T07:18:30.879Z,60.00
2022-11-23T07:19:31.954Z,64.00
2022-11-23T07:20:32.398Z,64.00
2022-11-23T07:21:33.226Z,66.00
2022-11-23T07:22:34.048Z,71.00
2022-11-23T07:23:34.887Z,53.00
2022-11-23T07:24:40.435Z,72.00
2022-11-23T07:25:37.429Z,70.00
2022-11-23T07:26:37.250Z,81.00
2022-11-23T07:27:38.078Z,100.00
2022-11-23T07:28:38.930Z,130.00
2022-11-23T07:29:39.742Z,107.00
2022-11-23T07:30:40.561Z,90.00
2022-11-23T07:31:41.390Z,131.00
2022-11-23T07:32:42.212Z,137.00
2022-11-23T07:33:43.080Z,120.00
2022-11-23T07:34:43.921Z,109.00
2022-11-23T07:35:44.728Z,105.00
2022-11-23T07:36:45.550Z,108.00
2022-11-23T07:37:46.380Z,100.00
2022-11-23T07:38:47.208Z,106.00
2022-11-23T07:40:01.868Z,104.00
2022-11-23T07:40:49.752Z,95.00
2022-11-23T07:41:51.415Z,105.00
2022-11-23T07:42:50.313Z,97.00
2022-11-23T07:43:51.169Z,98.00
2022-11-23T07:44:51.971Z,106.00
2022-11-23T07:45:52.800Z,111.00
2022-11-23T07:46:53.625Z,124.00
2022-11-23T07:47:54.451Z,136.00
2022-11-23T07:48:55.280Z,136.00
2022-11-23T07:49:56.110Z,131.00
2022-11-23T07:50:56.931Z,169.00
2022-11-23T07:51:57.759Z,165.00
2022-11-23T07:52:58.590Z,158.00
2022-11-23T07:53:59.427Z,143.00
2022-11-23T07:55:00.322Z,145.00
2022-11-23T07:56:01.099Z,155.00
2022-11-23T07:57:01.918Z,137.00
2022-11-23T07:58:02.753Z,155.00
2022-11-23T07:59:03.610Z,174.00
2022-11-23T08:00:04.418Z,193.00
2022-11-23T08:01:05.304Z,198.00
2022-11-23T08:02:06.155Z,211.00
2022-11-23T08:04:08.669Z,199.00
2022-11-23T08:05:12.821Z,237.00
2022-11-23T08:06:10.216Z,233.00
2022-11-23T08:07:10.135Z,303.00
2022-11-23T08:08:10.950Z,336.00
2022-11-23T08:09:11.779Z,289.00
2022-11-23T08:10:12.610Z,341.00
2022-11-23T08:11:13.429Z,324.00
2022-11-23T08:12:14.263Z,363.00
2022-11-23T08:13:15.092Z,355.00
2022-11-23T08:14:15.949Z,373.00
2022-11-23T08:15:16.759Z,426.00
2022-11-23T08:16:17.595Z,442.00
2022-11-23T08:17:18.410Z,458.00
2022-11-23T08:18:19.243Z,452.00
2022-11-23T08:19:20.082Z,494.00
2022-11-23T08:20:20.919Z,390.00
2022-11-23T08:21:21.745Z,345.00
2022-11-23T08:22:22.574Z,462.00
2022-11-23T08:23:23.394Z,397.00
2022-11-23T08:24:24.245Z,354.00
2022-11-23T08:25:25.064Z,352.00
2022-11-23T08:26:25.895Z,348.00
2022-11-23T08:27:26.730Z,352.00
2022-11-23T08:28:27.566Z,331.00
2022-11-23T08:29:28.414Z,362.00
2022-11-23T08:30:29.225Z,358.00
2022-11-23T08:31:30.055Z,309.00
2022-11-23T08:32:30.883Z,270.00
2022-11-23T08:33:31.719Z,263.00
2022-11-23T08:34:32.781Z,226.00
2022-11-23T08:35:33.247Z,220.00
2022-11-23T08:36:34.083Z,218.00
2022-11-23T08:37:34.908Z,227.00
2022-11-23T08:38:35.736Z,222.00
2022-11-23T08:39:36.576Z,213.00
2022-11-23T08:40:37.404Z,248.00
2022-11-23T08:41:38.235Z,231.00
2022-11-23T08:42:39.158Z,239.00
2022-11-23T08:43:39.934Z,477.00
2022-11-23T08:44:40.788Z,563.00
2022-11-23T08:45:41.587Z,224.00
2022-11-23T08:46:42.419Z,519.00
2022-11-23T08:47:43.239Z,593.00
2022-11-23T08:48:44.067Z,582.00
2022-11-23T08:49:44.908Z,538.00
2022-11-23T08:50:45.735Z,446.00
2022-11-23T08:51:50.057Z,355.00
2022-11-23T08:52:47.196Z,511.00
2022-11-23T08:53:48.026Z,637.00
2022-11-23T08:54:48.866Z,383.00
2022-11-23T08:55:49.697Z,382.00
2022-11-23T08:56:50.528Z,350.00
2022-11-23T08:57:51.368Z,280.00
2022-11-23T08:58:52.187Z,385.00
2022-11-23T08:59:53.049Z,388.00
2022-11-23T09:00:53.858Z,815.00
2022-11-23T09:01:54.749Z,433.00
2022-11-23T09:02:55.559Z,635.00
2022-11-23T09:03:56.393Z,1023.00
2022-11-23T09:04:57.237Z,620.00
2022-11-23T09:05:58.070Z,781.00
2022-11-23T09:06:59.144Z,559.00
2022-11-23T09:07:59.472Z,441.00
2022-11-23T09:09:00.308Z,174.00
2022-11-23T09:10:01.147Z,922.00
2022-11-23T09:11:01.973Z,482.00
2022-11-23T09:12:02.804Z,534.00
2022-11-23T09:13:03.655Z,776.00
2022-11-23T09:14:04.491Z,494.00
2022-11-23T09:15:05.362Z,378.00
2022-11-23T09:16:06.160Z,613.00
2022-11-23T09:17:06.993Z,743.00
2022-11-23T09:18:07.810Z,334.00
2022-11-23T09:19:08.641Z,921.00
2022-11-23T09:20:10.246Z,397.00
2022-11-23T09:21:10.062Z,554.00
2022-11-23T09:22:10.889Z,513.00
2022-11-23T09:23:14.223Z,415.00
2022-11-23T09:24:12.435Z,419.00
2022-11-23T09:25:13.278Z,404.00
2022-11-23T09:26:14.090Z,320.00
2022-11-23T09:27:14.921Z,335.00
2022-11-23T09:28:15.753Z,341.00
2022-11-23T09:29:16.583Z,339.00
2022-11-23T09:30:17.443Z,328.00
2022-11-23T09:31:18.246Z,352.00
2022-11-23T09:32:19.072Z,340.00
2022-11-23T09:33:19.895Z,343.00
2022-11-23T09:34:20.724Z,333.00
2022-11-23T09:35:21.565Z,330.00
2022-11-23T09:36:22.394Z,340.00
2022-11-23T09:37:23.224Z,331.00
2022-11-23T09:38:38.565Z,330.00
2022-11-23T09:39:25.770Z,324.00
2022-11-23T09:40:25.627Z,370.00
2022-11-23T09:41:26.459Z,329.00
2022-11-23T09:42:27.290Z,312.00
2022-11-23T09:43:28.116Z,325.00
2022-11-23T09:44:29.289Z,319.00
2022-11-23T09:45:29.880Z,321.00
2022-11-23T09:46:35.637Z,319.00
2022-11-23T09:47:32.401Z,313.00
2022-11-23T09:48:32.231Z,312.00
2022-11-23T09:49:33.053Z,314.00
2022-11-23T09:50:33.893Z,304.00
2022-11-23T09:51:34.712Z,301.00
2022-11-23T09:52:35.549Z,305.00
2022-11-23T09:53:36.361Z,302.00
2022-11-23T09:54:37.191Z,306.00
2022-11-23T09:55:38.030Z,296.00
2022-11-23T09:56:38.859Z,300.00
2022-11-23T09:57:39.681Z,300.00
2022-11-23T09:58:40.512Z,297.00
2022-11-23T09:59:41.332Z,297.00
2022-11-23T10:00:42.218Z,299.00
2022-11-23T10:01:43.010Z,290.00
2022-11-23T10:02:43.830Z,291.00
2022-11-23T10:03:48.709Z,285.00
2022-11-23T10:04:45.169Z,291.00
2022-11-23T10:05:46.010Z,287.00
2022-11-23T10:06:46.842Z,287.00
2022-11-23T10:07:47.729Z,279.00
2022-11-23T10:08:48.500Z,280.00
2022-11-23T10:09:49.360Z,284.00
2022-11-23T10:10:50.168Z,280.00
2022-11-23T10:11:50.993Z,282.00
2022-11-23T10:12:51.818Z,274.00
2022-11-23T10:13:52.639Z,278.00
2022-11-23T10:14:53.470Z,261.00
2022-11-23T10:15:54.334Z,269.00
2022-11-23T10:16:55.149Z,267.00
2022-11-23T10:17:55.979Z,266.00
2022-11-23T10:18:56.807Z,265.00
2022-11-23T10:19:57.637Z,265.00
2022-11-23T10:20:58.476Z,291.00
2022-11-23T10:21:59.307Z,214.00
2022-11-23T10:23:00.135Z,258.00
2022-11-23T10:24:00.961Z,269.00
2022-11-23T10:25:01.786Z,261.00
2022-11-23T10:26:02.625Z,255.00
2022-11-23T10:27:03.454Z,258.00
2022-11-23T10:28:04.273Z,253.00
2022-11-23T10:29:05.107Z,254.00
2022-11-23T10:30:05.922Z,252.00
2022-11-23T10:31:06.791Z,248.00
2022-11-23T10:32:07.591Z,248.00
2022-11-23T10:33:08.421Z,254.00
2022-11-23T10:34:09.254Z,253.00
2022-11-23T10:35:10.081Z,252.00
2022-11-23T10:36:10.929Z,251.00
2022-11-23T10:37:11.758Z,253.00
2022-11-23T10:38:18.485Z,251.00
2022-11-23T10:39:14.308Z,253.00
2022-11-23T10:40:14.135Z,250.00
2022-11-23T10:41:14.977Z,248.00
2022-11-23T10:42:15.802Z,253.00
2022-11-23T10:43:16.629Z,250.00
2022-11-23T10:44:17.461Z,249.00
2022-11-23T10:45:18.290Z,251.00
2022-11-23T10:46:19.143Z,253.00
2022-11-23T10:47:19.951Z,256.00
2022-11-23T10:48:20.782Z,253.00
2022-11-23T10:49:21.615Z,253.00
2022-11-23T10:50:22.436Z,254.00
2022-11-23T10:51:23.271Z,252.00
2022-11-23T10:52:24.100Z,253.00
2022-11-23T10:53:24.929Z,256.00
2022-11-23T10:54:25.750Z,255.00
2022-11-23T10:55:26.576Z,258.00
2022-11-23T10:56:27.606Z,258.00
2022-11-23T10:57:28.379Z,262.00
2022-11-23T10:58:29.209Z,261.00
2022-11-23T10:59:30.040Z,264.00
2022-11-23T11:00:31.648Z,268.00
2022-11-23T11:01:31.665Z,258.00
2022-11-23T11:02:32.439Z,263.00
2022-11-23T11:03:33.267Z,267.00
2022-11-23T11:04:34.349Z,270.00
2022-11-23T11:06:36.503Z,273.00
2022-11-23T11:07:36.390Z,275.00
2022-11-23T11:08:37.154Z,275.00
2022-11-23T11:09:37.982Z,273.00
2022-11-23T11:10:38.802Z,278.00
2022-11-23T11:11:39.676Z,278.00
2022-11-23T11:12:40.472Z,278.00
2022-11-23T11:13:41.302Z,279.00
2022-11-23T11:14:43.208Z,281.00
2022-11-23T11:15:47.707Z,282.00
2022-11-23T11:16:47.625Z,284.00
2022-11-23T11:17:44.484Z,285.00
2022-11-23T11:18:45.303Z,288.00
2022-11-23T11:19:46.132Z,284.00
2022-11-23T11:20:46.955Z,285.00
2022-11-23T11:21:47.803Z,289.00
2022-11-23T11:22:48.627Z,291.00
2022-11-23T11:23:49.452Z,286.00
2022-11-23T11:24:50.272Z,292.00
2022-11-23T11:25:51.111Z,294.00
2022-11-23T11:26:51.948Z,294.00
2022-11-23T11:27:52.778Z,296.00
2022-11-23T11:28:53.606Z,296.00
2022-11-23T11:29:54.435Z,299.00
2022-11-23T11:30:55.266Z,300.00
2022-11-23T11:31:56.122Z,297.00
2022-11-23T11:32:56.925Z,303.00
2022-11-23T11:33:57.755Z,305.00
2022-11-23T11:34:58.590Z,305.00
2022-11-23T11:35:59.414Z,305.00
2022-11-23T11:37:00.267Z,308.00
2022-11-23T11:38:01.098Z,309.00
2022-11-23T11:39:17.935Z,308.00
2022-11-23T11:40:03.640Z,312.00
2022-11-23T11:41:03.474Z,312.00
2022-11-23T11:42:04.328Z,310.00
2022-11-23T11:43:05.148Z,497.00
2022-11-23T11:44:05.978Z,95.00
2022-11-23T11:45:06.814Z,334.00
2022-11-23T11:46:27.924Z,322.00
2022-11-23T11:47:09.389Z,316.00
2022-11-23T11:48:09.197Z,320.00
2022-11-23T11:49:10.027Z,321.00
2022-11-23T11:50:10.856Z,320.00
2022-11-23T11:51:11.688Z,320.00
2022-11-23T11:52:12.541Z,326.00
2022-11-23T11:53:13.374Z,331.00
2022-11-23T11:54:14.249Z,326.00
2022-11-23T11:55:15.024Z,328.00
2022-11-23T11:56:15.914Z,324.00
2022-11-23T11:57:16.728Z,326.00
2022-11-23T11:58:17.547Z,324.00
2022-11-23T11:59:18.369Z,328.00
2022-11-23T12:00:19.191Z,328.00
2022-11-23T12:01:20.021Z,329.00
2022-11-23T12:02:21.043Z,326.00
2022-11-23T12:03:21.438Z,332.00
2022-11-23T12:04:22.241Z,329.00
2022-11-23T12:05:23.071Z,340.00
2022-11-23T12:06:26.814Z,313.00
2022-11-23T12:07:24.876Z,337.00
2022-11-23T12:08:25.683Z,331.00
2022-11-23T12:09:26.525Z,328.00
2022-11-23T12:10:27.331Z,325.00
2022-11-23T12:11:28.153Z,371.00
2022-11-23T12:12:29.998Z,291.00
2022-11-23T12:13:29.834Z,332.00
2022-11-23T12:14:30.895Z,331.00
2022-11-23T12:15:48.874Z,332.00
2022-11-23T12:16:33.106Z,329.00
2022-11-23T12:17:33.671Z,329.00
2022-11-23T12:18:33.563Z,329.00
2022-11-23T12:19:34.624Z,334.00
2022-11-23T12:20:35.034Z,333.00
2022-11-23T12:21:35.921Z,413.00
2022-11-23T12:22:36.733Z,228.00
2022-11-23T12:23:37.554Z,333.00
2022-11-23T12:24:38.384Z,329.00
2022-11-23T12:25:39.216Z,327.00
2022-11-23T12:26:40.043Z,327.00
2022-11-23T12:27:46.599Z,322.00
2022-11-23T12:28:42.592Z,322.00
2022-11-23T12:29:42.407Z,322.00
2022-11-23T12:30:43.238Z,322.00
2022-11-23T12:31:44.058Z,318.00
2022-11-23T12:32:44.915Z,321.00
2022-11-23T12:33:45.721Z,322.00
2022-11-23T12:34:46.548Z,318.00
2022-11-23T12:35:47.369Z,316.00
2022-11-23T12:36:48.198Z,317.00
2022-11-23T12:37:49.037Z,315.00
2022-11-23T12:38:49.865Z,316.00
2022-11-23T12:39:50.699Z,317.00
2022-11-23T12:40:51.526Z,313.00
2022-11-23T12:41:52.345Z,314.00
2022-11-23T12:42:53.188Z,314.00
2022-11-23T12:43:54.008Z,315.00
2022-11-23T12:44:54.837Z,314.00
2022-11-23T12:45:55.667Z,312.00
2022-11-23T12:46:56.496Z,309.00
2022-11-23T12:47:57.364Z,309.00
2022-11-23T12:48:58.182Z,308.00
2022-11-23T12:49:59.012Z,307.00
2022-11-23T12:50:59.832Z,307.00
2022-11-23T12:52:00.658Z,306.00
2022-11-23T12:53:01.494Z,305.00
2022-11-23T12:54:02.400Z,302.00
2022-11-23T12:55:03.234Z,300.00
2022-11-23T12:56:04.052Z,300.00
2022-11-23T12:57:04.889Z,300.00
2022-11-23T12:58:05.723Z,302.00
2022-11-23T12:59:06.554Z,297.00
2022-11-23T13:00:07.380Z,297.00
2022-11-23T13:01:08.249Z,295.00
2022-11-23T13:02:09.161Z,295.00
2022-11-23T13:03:10.033Z,291.00
2022-11-23T13:04:10.791Z,286.00
2022-11-23T13:05:11.618Z,290.00
2022-11-23T13:06:12.439Z,287.00
2022-11-23T13:07:28.466Z,288.00